Time;durP1;ratioP1;P1;durP2;ratioP2;P2;SDS_P1;SDS_P2;PMS_P1;PMS_P2;Temp;Humidity;BMP_temperature;BMP_pressure;BME280_temperature;BME280_humidity;BME280_pressure;Samples;Min_cycle;Max_cycle;Signal;HPM_P1;HPM_P2
2023/04/14 00:00:11;;;;;;;;;10.25;9.00;;;;;14.28;58.79;100262.50;146622;573;45021;-81
2023/04/14 00:03:07;;;;;;;;;10.25;9.50;;;;;14.71;60.34;100346.38;146616;640;46014;-88
2023/04/14 00:06:02;;;;;;;;;9.75;9.75;;;;;14.66;60.43;100346.22;146621;563;46010;-86
2023/04/14 00:09:17;;;;;;;;;10.75;9.50;;;;;14.61;60.78;100346.94;146621;564;46012;-80
2023/04/14 00:12:22;;;;;;;;;12.00;11.00;;;;;14.55;59.61;100345.94;146622;706;46020;-80
2023/04/14 00:15:21;;;;;;;;;13.00;10.00;;;;;14.49;62.23;100355.28;146615;599;46016;-81
2023/04/14 00:18:26;;;;;;;;;15.75;12.25;;;;;14.42;61.92;100351.56;146621;616;46020;-82
2023/04/14 00:21:19;;;;;;;;;12.25;12.25;;;;;14.41;62.41;100349.81;146618;613;46016;-83
2023/04/14 00:24:20;;;;;;;;;13.00;11.75;;;;;14.41;60.90;100348.94;146617;656;46010;-82
2023/04/14 00:27:33;;;;;;;;;15.50;14.25;;;;;12.98;59.96;100083.12;146615;566;46018;-85
2023/04/14 00:30:32;;;;;;;;;13.25;12.75;;;;;14.52;61.22;100329.31;146622;580;46011;-89
2023/04/14 00:33:37;;;;;;;;;13.75;12.00;;;;;14.60;61.33;100340.84;146619;563;46012;-86
2023/04/14 00:36:38;;;;;;;;;11.00;10.25;;;;;14.72;61.68;100350.75;146623;600;46010;-91
2023/04/14 00:39:31;;;;;;;;;10.00;10.00;;;;;14.81;61.37;100343.19;146617;593;46017;-86
2023/04/14 00:42:32;;;;;;;;;13.00;12.00;;;;;14.61;60.68;100295.66;146621;595;46010;-82
2023/04/14 00:45:38;;;;;;;;;17.75;14.25;;;;;14.94;62.82;100331.34;146617;779;46017;-82
2023/04/14 00:48:33;;;;;;;;;12.75;11.50;;;;;14.94;61.70;100337.44;146624;626;46020;-83
2023/04/14 00:51:32;;;;;;;;;15.75;13.25;;;;;14.98;62.25;100330.56;146617;617;46016;-79
2023/04/14 00:54:31;;;;;;;;;17.50;14.00;;;;;14.89;62.42;100310.34;146619;646;46020;-79
2023/04/14 00:57:36;;;;;;;;;13.00;12.75;;;;;15.04;62.62;100317.69;146620;571;46917;-80
2023/04/14 01:00:37;;;;;;;;;13.50;12.50;;;;;15.08;62.71;100324.78;146624;618;46010;-76
2023/04/14 01:03:33;;;;;;;;;12.50;10.75;;;;;15.11;62.71;100323.94;146620;592;46016;-77
2023/04/14 01:06:27;;;;;;;;;15.50;14.00;;;;;15.11;62.92;100322.25;146624;599;45020;-77
2023/04/14 01:09:41;;;;;;;;;;;;;;;;;;;;;
2023/04/14 01:13:45;;;;;;;;;;;;;;;;;;;;;
2023/04/14 01:17:04;;;;;;;;;16.25;15.00;;;;;15.14;62.68;100344.91;146617;581;46012;-80
2023/04/14 01:20:40;;;;;;;;;14.00;12.00;;;;;14.89;60.77;100305.13;146620;595;46010;-79
2023/04/14 01:23:39;;;;;;;;;14.25;14.25;;;;;15.08;63.06;100335.22;146616;581;46017;-78
2023/04/14 01:26:37;;;;;;;;;13.25;12.25;;;;;15.07;63.71;100341.25;146621;579;46010;-81
2023/04/14 01:30:05;;;;;;;;;16.25;15.00;;;;;15.01;62.47;100339.41;146617;564;46918;-81
2023/04/14 01:33:19;;;;;;;;;20.25;18.00;;;;;14.76;61.57;100306.50;146624;611;46010;-81
2023/04/14 01:36:28;;;;;;;;;18.25;17.00;;;;;14.96;63.70;100340.12;146617;597;46916;-83
2023/04/14 01:39:25;;;;;;;;;15.00;12.75;;;;;14.95;64.64;100333.09;146624;666;46032;-81
2023/04/14 01:42:34;;;;;;;;;12.00;11.00;;;;;14.89;62.34;100335.53;146618;568;46027;-82
2023/04/14 01:45:41;;;;;;;;;10.25;10.25;;;;;14.76;63.88;100321.28;146622;633;46021;-82
2023/04/14 01:49:02;;;;;;;;;10.75;10.00;;;;;14.51;62.09;100309.25;146621;680;45917;-83
2023/04/14 01:52:13;;;;;;;;;;;;;;;;;;;;;
2023/04/14 01:55:18;;;;;;;;;10.75;10.00;;;;;14.52;62.69;100321.50;146617;587;46012;-77
2023/04/14 01:58:12;;;;;;;;;9.00;8.50;;;;;14.52;63.53;100324.09;146622;571;46020;-82
2023/04/14 02:01:10;;;;;;;;;8.50;7.00;;;;;14.53;63.06;100318.91;146620;579;46012;-82
2023/04/14 02:04:27;;;;;;;;;11.50;9.00;;;;;14.51;61.79;100319.69;146623;590;46031;-82
2023/04/14 02:07:37;;;;;;;;;10.75;8.00;;;;;14.46;62.48;100316.06;146619;599;47012;-83
2023/04/14 02:10:59;;;;;;;;;8.00;7.00;;;;;14.22;61.15;100297.97;146625;581;46010;-80
2023/04/14 02:14:08;;;;;;;;;9.25;8.00;;;;;14.24;62.35;100322.37;146617;565;46014;-79
2023/04/14 02:17:05;;;;;;;;;8.75;7.00;;;;;14.15;63.25;100319.47;146626;575;46010;-78
2023/04/14 02:20:19;;;;;;;;;15.50;12.00;;;;;14.07;62.06;100316.62;146618;577;46016;-77
2023/04/14 02:23:21;;;;;;;;;8.25;7.75;;;;;14.08;63.92;100307.94;146621;571;46020;-77
2023/04/14 02:26:26;;;;;;;;;21.25;18.00;;;;;14.09;63.20;100314.97;146619;614;46012;-76
2023/04/14 02:29:43;;;;;;;;;11.25;9.25;;;;;14.12;63.93;100314.19;146619;602;47010;-80
2023/04/14 02:32:55;;;;;;;;;8.75;8.00;;;;;14.18;62.44;100323.06;146619;687;46915;-80
2023/04/14 02:36:23;;;;;;;;;8.25;5.75;;;;;14.20;61.70;100329.19;146621;674;46021;-81
2023/04/14 02:39:22;;;;;;;;;8.25;7.75;;;;;14.22;64.62;100339.69;146619;585;46016;-72
2023/04/14 02:42:17;;;;;;;;;10.00;10.00;;;;;14.18;64.51;100349.13;146625;578;46010;-73
2023/04/14 02:45:22;;;;;;;;;9.00;9.00;;;;;14.13;65.41;100342.00;146618;615;46016;-74
2023/04/14 02:48:25;;;;;;;;;10.50;9.50;;;;;14.08;64.87;100347.06;146624;574;46010;-85
2023/04/14 02:51:19;;;;;;;;;12.25;10.00;;;;;14.09;66.82;100338.41;146621;677;46013;-84
2023/04/14 02:54:32;;;;;;;;;15.50;12.75;;;;;14.03;67.74;100336.50;146620;565;46020;-85
2023/04/14 02:57:55;;;;;;;;;10.50;10.00;;;;;13.49;64.34;100255.78;146617;580;47017;-84
2023/04/14 03:01:07;;;;;;;;;8.00;7.00;;;;;13.94;67.31;100330.12;146622;599;46010;-84
2023/04/14 03:04:13;;;;;;;;;12.00;9.75;;;;;13.58;65.15;100262.97;146617;603;46016;-86
2023/04/14 03:07:19;;;;;;;;;6.50;6.50;;;;;13.92;64.62;100314.41;146620;666;46010;-84
2023/04/14 03:10:18;;;;;;;;;9.00;9.00;;;;;13.99;65.10;100315.53;146618;596;46016;-83
2023/04/14 03:13:18;;;;;;;;;11.50;9.25;;;;;14.05;65.38;100305.28;146621;606;46010;-81
2023/04/14 03:16:24;;;;;;;;;9.25;9.25;;;;;14.03;65.52;100301.75;146619;611;46016;-83
2023/04/14 03:19:22;;;;;;;;;10.25;8.75;;;;;14.03;65.42;100301.75;146621;576;47011;-82
2023/04/14 03:22:37;;;;;;;;;8.00;7.50;;;;;14.03;63.46;100306.94;146621;608;46012;-86
2023/04/14 03:25:45;;;;;;;;;14.00;12.00;;;;;13.96;63.33;100289.38;146622;642;46020;-85
2023/04/14 03:28:57;;;;;;;;;;;;;;;;;;;;;
2023/04/14 03:31:59;;;;;;;;;7.50;7.50;;;;;14.06;65.40;100297.50;146621;579;46010;-83
2023/04/14 03:35:03;;;;;;;;;8.00;7.25;;;;;14.00;65.02;100284.28;146623;580;46012;-81
2023/04/14 03:38:10;;;;;;;;;10.25;7.00;;;;;13.66;64.60;100239.78;146625;569;46010;-82
2023/04/14 03:41:11;;;;;;;;;9.50;5.50;;;;;13.91;64.81;100286.59;146615;636;46918;-84
2023/04/14 03:44:14;;;;;;;;;6.00;5.00;;;;;13.91;64.44;100285.72;146624;704;46010;-82
2023/04/14 03:47:09;;;;;;;;;7.00;6.00;;;;;13.84;65.21;100275.09;146620;569;46012;-82
2023/04/14 03:50:07;;;;;;;;;10.50;8.00;;;;;13.54;66.23;100235.94;146623;684;46021;-84
2023/04/14 03:53:05;;;;;;;;;9.00;7.75;;;;;13.82;65.36;100286.31;146616;580;46016;-83
2023/04/14 03:56:19;;;;;;;;;10.25;8.00;;;;;13.37;64.71;100201.56;146619;573;46020;-82
2023/04/14 03:59:17;;;;;;;;;11.75;8.00;;;;;13.86;65.35;100277.75;146619;656;46012;-83
2023/04/14 04:02:23;;;;;;;;;11.25;9.50;;;;;13.92;64.59;100282.25;146621;565;46020;-83
2023/04/14 04:05:24;;;;;;;;;9.50;8.25;;;;;13.97;65.50;100278.97;146618;600;46013;-80
2023/04/14 04:08:36;;;;;;;;;9.25;7.25;;;;;14.07;63.94;100280.13;146620;630;46020;-79
2023/04/14 04:11:32;;;;;;;;;13.50;12.00;;;;;14.04;65.61;100264.37;146619;566;46013;-85
2023/04/14 04:14:32;;;;;;;;;11.00;10.00;;;;;14.21;65.42;100283.16;146621;629;46020;-85
2023/04/14 04:17:34;;;;;;;;;11.50;9.50;;;;;14.13;64.89;100254.25;146615;570;47012;-86
2023/04/14 04:20:35;;;;;;;;;14.25;12.00;;;;;14.36;64.72;100282.69;146621;683;46011;-84
2023/04/14 04:23:34;;;;;;;;;13.00;11.25;;;;;14.45;65.17;100282.97;146615;605;46015;-85
2023/04/14 04:26:42;;;;;;;;;15.00;12.00;;;;;14.51;65.11;100280.56;146621;690;46021;-84
2023/04/14 04:29:41;;;;;;;;;14.50;13.00;;;;;14.54;65.25;100285.88;146617;587;46014;-89
2023/04/14 04:32:50;;;;;;;;;13.00;12.50;;;;;14.31;64.77;100244.34;146619;575;47020;-90
2023/04/14 04:35:56;;;;;;;;;11.75;11.00;;;;;14.68;64.30;100294.09;146621;586;46012;-87
2023/04/14 04:38:51;;;;;;;;;16.75;15.25;;;;;14.66;65.77;100278.38;146621;593;46020;-86
2023/04/14 04:41:54;;;;;;;;;14.50;13.25;;;;;14.85;66.17;100303.25;146615;586;46017;-78
2023/04/14 04:44:55;;;;;;;;;16.75;14.50;;;;;15.00;66.27;100300.19;146612;592;46020;-79
2023/04/14 04:47:51;;;;;;;;;19.50;15.75;;;;;14.89;65.12;100265.06;146617;565;46016;-87
2023/04/14 04:51:01;;;;;;;;;20.00;18.00;;;;;15.20;64.11;100299.00;146618;596;47010;-78
2023/04/14 04:54:04;;;;;;;;;22.25;17.50;;;;;15.29;63.39;100300.03;146616;579;46012;-82
2023/04/14 04:57:13;;;;;;;;;17.00;15.25;;;;;14.69;61.52;100188.88;146621;595;45031;-83
2023/04/14 05:00:28;;;;;;;;;;;;;;;;;;;;;
2023/04/14 05:03:32;;;;;;;;;15.25;14.00;;;;;15.32;62.56;100274.87;146624;595;45013;-75
2023/04/14 05:06:40;;;;;;;;;12.50;11.00;;;;;15.44;62.65;100271.69;146616;610;46016;-83
2023/04/14 05:09:44;;;;;;;;;15.50;14.75;;;;;15.55;63.87;100274.59;146621;577;46020;-84
2023/04/14 05:12:44;;;;;;;;;18.00;14.25;;;;;15.67;63.76;100265.31;146618;570;46013;-86
2023/04/14 05:15:43;;;;;;;;;21.25;19.25;;;;;15.82;64.56;100266.50;146622;741;46010;-84
2023/04/14 05:18:40;;;;;;;;;19.00;14.00;;;;;15.99;63.48;100272.13;146620;624;46016;-85
2023/04/14 05:21:43;;;;;;;;;15.50;15.00;;;;;16.08;62.33;100270.59;146617;582;46020;-85
2023/04/14 05:25:02;;;;;;;;;16.25;14.25;;;;;16.15;61.50;100274.22;146617;586;46012;-85
2023/04/14 05:28:10;;;;;;;;;22.00;17.75;;;;;16.20;62.20;100277.84;146620;615;47010;-85
2023/04/14 05:31:23;;;;;;;;;;;;;;;;;;;;;
2023/04/14 05:34:16;;;;;;;;;20.50;17.25;;;;;16.23;62.19;100287.44;146622;583;46020;-85
2023/04/14 05:37:33;;;;;;;;;18.25;14.75;;;;;16.18;59.53;100271.66;146618;584;45016;-86
2023/04/14 05:40:36;;;;;;;;;22.25;17.50;;;;;16.20;59.66;100266.47;146613;576;47010;-84
2023/04/14 05:43:37;;;;;;;;;19.75;15.50;;;;;16.28;60.90;100283.22;146618;565;46012;-84
2023/04/14 05:46:36;;;;;;;;;19.00;14.25;;;;;16.29;60.70;100292.81;146621;724;46010;-85
2023/04/14 05:49:44;;;;;;;;;19.50;16.25;;;;;16.28;61.21;100294.56;146619;593;46032;-87
2023/04/14 05:52:47;;;;;;;;;17.25;15.00;;;;;16.23;61.21;100292.69;146616;576;46020;-87
2023/04/14 05:55:47;;;;;;;;;22.75;19.50;;;;;16.20;61.75;100292.62;146615;580;46017;-85
2023/04/14 05:58:58;;;;;;;;;;;;;;;;;;;;;
2023/04/14 06:02:14;;;;;;;;;15.25;14.00;;;;;14.68;61.37;100023.59;146621;573;46017;-80
2023/04/14 06:05:18;;;;;;;;;21.25;19.00;;;;;16.12;62.34;100263.69;146622;638;46010;-79
2023/04/14 06:08:12;;;;;;;;;22.00;18.00;;;;;16.10;62.13;100260.16;146612;584;46916;-81
2023/04/14 06:11:07;;;;;;;;;24.00;21.00;;;;;16.10;64.15;100257.53;146620;582;46012;-79
2023/04/14 06:14:12;;;;;;;;;21.00;18.25;;;;;14.28;62.68;99940.87;146618;696;46016;-88
2023/04/14 06:17:08;;;;;;;;;21.75;18.00;;;;;16.06;65.74;100253.09;146615;604;46020;-89
2023/04/14 06:20:11;;;;;;;;;22.00;19.75;;;;;16.17;66.31;100278.66;146618;620;46916;-86
2023/04/14 06:23:16;;;;;;;;;20.25;18.25;;;;;16.22;63.45;100285.69;146619;596;46010;-83
2023/04/14 06:26:21;;;;;;;;;19.00;17.00;;;;;16.25;64.34;100285.75;146617;569;46012;-74
2023/04/14 06:29:18;;;;;;;;;17.50;17.00;;;;;16.31;64.36;100275.44;146611;638;47010;-82
2023/04/14 06:32:13;;;;;;;;;23.50;21.25;;;;;16.41;63.84;100280.00;146618;605;46916;-87
2023/04/14 06:35:09;;;;;;;;;14.75;13.00;;;;;16.46;63.71;100280.97;146616;601;46020;-86
2023/04/14 06:38:02;;;;;;;;;15.00;13.00;;;;;16.54;63.41;100282.03;146617;633;46016;-86
2023/04/14 06:41:10;;;;;;;;;21.50;20.25;;;;;16.64;62.60;100288.31;146623;572;46021;-90
2023/04/14 06:44:13;;;;;;;;;13.75;13.75;;;;;16.73;61.35;100277.13;146619;593;46016;-87
2023/04/14 06:47:31;;;;;;;;;14.00;13.75;;;;;16.84;62.09;100284.37;146617;599;46010;-87
2023/04/14 06:50:28;;;;;;;;;23.25;20.00;;;;;16.98;64.46;100287.25;146613;761;46016;-86
2023/04/14 06:53:29;;;;;;;;;22.00;19.75;;;;;17.11;62.77;100287.47;146617;691;47010;-87
2023/04/14 06:56:21;;;;;;;;;20.75;19.75;;;;;17.26;62.31;100282.50;146617;704;46012;-87
2023/04/14 06:59:19;;;;;;;;;21.50;20.25;;;;;17.44;61.99;100277.53;146618;563;47010;-87
2023/04/14 07:02:23;;;;;;;;;;;;;;;;;;;;;
2023/04/14 07:05:20;;;;;;;;;24.00;22.25;;;;;18.02;59.80;100288.06;146618;576;46020;-87
2023/04/14 07:08:30;;;;;;;;;21.00;19.25;;;;;18.26;59.37;100292.78;146618;618;46012;-87
2023/04/14 07:11:31;;;;;;;;;22.75;19.50;;;;;18.50;58.36;100291.31;146615;596;47010;-88
2023/04/14 07:14:35;;;;;;;;;20.50;16.75;;;;;18.74;56.58;100296.88;146608;585;46915;-86
2023/04/14 07:17:43;;;;;;;;;18.00;15.00;;;;;19.05;56.11;100299.84;146618;592;47012;-86
2023/04/14 07:20:35;;;;;;;;;14.75;13.50;;;;;19.36;56.51;100312.41;146617;671;46915;-88
2023/04/14 07:23:45;;;;;;;;;16.25;14.50;;;;;17.62;54.78;99954.50;146619;637;47010;-84
2023/04/14 07:27:01;;;;;;;;;;;;;;;;;;;;;
2023/04/14 07:30:18;;;;;;;;;15.75;14.00;;;;;20.26;52.75;100319.22;146618;617;46020;-83
2023/04/14 07:33:35;;;;;;;;;11.75;11.75;;;;;20.48;51.42;100318.44;146619;588;46038;-81
2023/04/14 07:36:28;;;;;;;;;12.50;11.50;;;;;20.70;51.17;100322.06;146620;596;46010;-81
2023/04/14 07:39:27;;;;;;;;;11.00;10.25;;;;;20.85;49.15;100315.97;146616;578;47014;-80
2023/04/14 07:42:30;;;;;;;;;13.00;11.25;;;;;20.86;49.11;100323.00;146620;673;46020;-79
2023/04/14 07:45:36;;;;;;;;;13.75;11.00;;;;;20.81;48.89;100308.94;146614;564;47015;-83
2023/04/14 07:48:28;;;;;;;;;7.25;7.25;;;;;20.77;48.68;100310.66;146619;596;46021;-83
2023/04/14 07:51:20;;;;;;;;;10.25;8.00;;;;;20.80;48.07;100308.94;146617;655;46016;-82
2023/04/14 07:54:12;;;;;;;;;11.00;9.00;;;;;20.76;47.90;100301.00;146623;641;46010;-83
2023/04/14 07:57:08;;;;;;;;;9.00;9.00;;;;;20.82;46.37;100308.06;146619;569;46016;-82
2023/04/14 08:00:05;;;;;;;;;7.25;6.25;;;;;20.75;47.09;100316.84;146625;685;45020;-83
2023/04/14 08:03:05;;;;;;;;;6.50;6.50;;;;;20.60;46.45;100314.13;146620;575;46012;-78
2023/04/14 08:06:04;;;;;;;;;9.00;8.50;;;;;20.37;47.32;100320.12;146622;589;46020;-81
2023/04/14 08:09:11;;;;;;;;;9.75;9.50;;;;;20.24;48.65;100320.94;146617;595;46017;-82
2023/04/14 08:12:20;;;;;;;;;10.25;9.00;;;;;20.09;47.89;100311.22;146620;593;46010;-79
2023/04/14 08:15:14;;;;;;;;;6.75;6.75;;;;;19.94;47.88;100311.13;146619;612;46916;-82
2023/04/14 08:18:16;;;;;;;;;7.75;6.75;;;;;19.84;49.42;100308.44;146614;672;46020;-85
2023/04/14 08:21:20;;;;;;;;;11.00;8.75;;;;;19.77;50.49;100296.09;146621;645;46012;-83
2023/04/14 08:24:23;;;;;;;;;10.75;10.75;;;;;19.73;50.88;100303.97;146623;706;46011;-82
2023/04/14 08:27:31;;;;;;;;;;;;;;;;;;;;;
2023/04/14 08:30:48;;;;;;;;;13.00;10.00;;;;;18.56;51.81;100076.09;146618;612;47022;-81
2023/04/14 08:33:52;;;;;;;;;12.75;10.50;;;;;19.78;51.97;100294.34;146614;582;46016;-82
2023/04/14 08:36:52;;;;;;;;;11.25;9.00;;;;;19.75;51.35;100297.84;146621;583;46010;-76
2023/04/14 08:39:53;;;;;;;;;11.50;11.00;;;;;19.79;51.82;100294.37;146618;635;46916;-82
2023/04/14 08:43:07;;;;;;;;;13.25;11.00;;;;;18.55;51.77;100071.72;146622;579;46020;-81
2023/04/14 08:46:23;;;;;;;;;;;;;;;;;;;;;
2023/04/14 08:49:57;;;;;;;;;8.50;7.50;;;;;19.83;45.80;100297.91;146616;697;46010;-78
2023/04/14 08:53:18;;;;;;;;;11.75;7.00;;;;;19.83;47.34;100297.91;146613;590;47013;-81
2023/04/14 08:56:38;;;;;;;;;11.00;10.50;;;;;19.86;48.97;100295.28;146621;611;46020;-81
2023/04/14 08:59:42;;;;;;;;;12.25;10.00;;;;;19.89;47.76;100289.16;146615;660;46012;-83
2023/04/14 09:02:51;;;;;;;;;11.75;11.00;;;;;19.88;48.79;100290.94;146618;639;46028;-81
2023/04/14 09:05:45;;;;;;;;;10.25;7.50;;;;;19.86;44.88;100284.75;146615;599;46016;-84
2023/04/14 09:08:58;;;;;;;;;9.00;7.25;;;;;19.92;45.65;100286.56;146623;628;46011;-79
2023/04/14 09:12:03;;;;;;;;;6.75;6.25;;;;;20.00;45.10;100287.47;146618;606;46014;-81
2023/04/14 09:15:00;;;;;;;;;6.25;6.25;;;;;20.07;45.39;100276.12;146621;697;46020;-76
2023/04/14 09:18:26;;;;;;;;;;;;;;;;;;;;;
2023/04/14 09:21:36;;;;;;;;;8.50;5.00;;;;;20.12;42.54;100263.84;146617;648;46010;-82
2023/04/14 09:24:38;;;;;;;;;7.00;5.33;;;;;20.08;41.91;100254.19;146620;583;46014;-80
2023/04/14 09:27:38;;;;;;;;;5.50;4.50;;;;;20.11;43.02;100248.94;146622;677;46010;-81
2023/04/14 09:30:55;;;;;;;;;5.67;4.33;;;;;20.06;41.17;100254.19;146622;578;46012;-81
2023/04/14 09:34:37;;;;;;;;;8.00;6.75;;;;;18.96;42.06;100058.03;146625;593;45020;-80
2023/04/14 09:37:46;;;;;;;;;5.00;5.00;;;;;20.11;42.47;100238.41;146623;570;46013;-79
2023/04/14 09:41:06;;;;;;;;;5.67;5.00;;;;;18.90;40.71;100019.47;146622;582;47010;-80
2023/04/14 09:44:10;;;;;;;;;4.33;3.67;;;;;20.20;38.81;100238.44;146618;564;46013;-88
2023/04/14 09:47:07;;;;;;;;;4.00;4.00;;;;;20.34;38.64;100237.63;146624;569;46010;-78
2023/04/14 09:50:17;;;;;;;;;5.75;5.00;;;;;19.42;38.33;100050.41;146612;649;47914;-74
2023/04/14 09:53:21;;;;;;;;;4.00;4.00;;;;;20.61;37.72;100228.97;146614;569;46021;-82
2023/04/14 09:56:24;;;;;;;;;4.00;3.00;;;;;20.70;38.53;100229.00;146619;601;46014;-81
2023/04/14 09:59:59;;;;;;;;;6.33;5.33;;;;;20.84;40.36;100215.81;146623;570;46013;-80
2023/04/14 10:03:03;;;;;;;;;4.50;4.50;;;;;21.12;37.40;100216.72;146618;565;46014;-81
2023/04/14 10:06:03;;;;;;;;;5.50;5.25;;;;;21.47;37.87;100216.75;146619;666;46021;-80
2023/04/14 10:09:01;;;;;;;;;4.00;4.00;;;;;21.85;35.04;100195.53;146619;622;46014;-77
2023/04/14 10:12:34;;;;;;;;;6.33;4.00;;;;;22.21;36.17;100188.41;146621;650;46010;-82
2023/04/14 10:15:32;;;;;;;;;6.33;3.67;;;;;22.55;36.62;100177.62;146620;610;46014;-80
2023/04/14 10:18:27;;;;;;;;;4.00;4.00;;;;;22.87;34.90;100193.28;146621;572;47012;-81
2023/04/14 10:21:29;;;;;;;;;4.33;3.67;;;;;22.99;34.34;100195.88;146619;564;46012;-79
2023/04/14 10:24:39;;;;;;;;;2.33;2.33;;;;;23.13;33.11;100179.87;146613;566;46020;-79
2023/04/14 10:27:40;;;;;;;;;4.00;2.00;;;;;23.24;35.06;100187.69;146617;610;46916;-76
2023/04/14 10:30:42;;;;;;;;;4.33;3.00;;;;;22.34;36.35;100033.37;146623;583;46011;-78
2023/04/14 10:33:42;;;;;;;;;4.00;4.00;;;;;22.24;36.25;99986.78;146618;677;47012;-81
2023/04/14 10:36:37;;;;;;;;;4.00;4.00;;;;;23.50;32.62;100164.53;146615;581;47011;-79
2023/04/14 10:39:30;;;;;;;;;3.33;3.00;;;;;23.58;32.42;100159.13;146616;577;46016;-81
2023/04/14 10:42:41;;;;;;;;;;;;;;;;;;;;;
2023/04/14 10:45:35;;;;;;;;;4.00;3.00;;;;;23.64;33.32;100169.66;146620;646;46012;-81
2023/04/14 10:48:42;;;;;;;;;3.33;3.00;;;;;23.68;33.04;100146.69;146621;642;46020;-82
2023/04/14 10:51:43;;;;;;;;;2.67;2.33;;;;;23.67;31.95;100148.44;146622;599;45030;-78
2023/04/14 10:55:13;;;;;;;;;4.00;3.00;;;;;23.67;31.77;100156.38;146617;570;46020;-79
2023/04/14 10:58:11;;;;;;;;;4.33;4.33;;;;;23.65;31.77;100170.56;146615;569;46016;-75
2023/04/14 11:01:37;;;;;;;;;;;;;;;;;;;;;
2023/04/14 11:08:51;;;;;;;;;5.00;3.00;;;;;23.88;32.18;100157.06;146622;635;46012;-79
2023/04/14 11:11:54;;;;;;;;;4.00;3.00;;;;;23.81;31.74;100147.47;146620;625;46016;-78
2023/04/14 11:15:03;;;;;;;;;4.67;4.33;;;;;23.80;33.29;100156.28;146617;569;46021;-81
2023/04/14 11:18:15;;;;;;;;;6.33;3.67;;;;;23.91;31.46;100149.97;146621;572;46016;-78
2023/04/14 11:21:32;;;;;;;;;5.33;3.00;;;;;22.36;33.07;99863.41;146625;618;46012;-83
2023/04/14 11:24:59;;;;;;;;;3.00;2.33;;;;;22.73;32.99;99923.78;146621;590;46014;-80
2023/04/14 11:27:54;;;;;;;;;3.33;3.33;;;;;24.00;30.07;100126.91;146617;580;46010;-77
2023/04/14 11:30:47;;;;;;;;;2.00;1.00;;;;;24.00;30.13;100116.31;146622;584;46017;-79
2023/04/14 11:33:49;;;;;;;;;2.00;2.00;;;;;24.10;30.96;100116.16;146623;641;46012;-80
2023/04/14 11:36:52;;;;;;;;;2.00;2.00;;;;;24.28;30.36;100111.50;146622;602;46013;-79
2023/04/14 11:40:00;;;;;;;;;6.00;3.00;;;;;24.49;31.23;100121.84;146623;654;45029;-78
2023/04/14 11:43:05;;;;;;;;;4.00;3.75;;;;;24.61;30.05;100111.03;146619;566;45017;-78
2023/04/14 11:46:03;;;;;;;;;4.00;3.00;;;;;24.81;29.87;100116.00;146624;566;46010;-83
2023/04/14 11:49:17;;;;;;;;;4.00;3.00;;;;;24.03;30.31;99938.84;146621;705;46016;-82
2023/04/14 11:52:28;;;;;;;;;2.00;2.00;;;;;25.14;28.34;100112.81;146621;603;46021;-79
2023/04/14 11:55:39;;;;;;;;;2.67;2.67;;;;;25.21;28.53;100110.03;146619;613;46014;-79
2023/04/14 11:58:36;;;;;;;;;4.33;3.00;;;;;25.22;29.29;100100.28;146617;689;47021;-80
2023/04/14 12:01:40;;;;;;;;;3.00;3.00;;;;;25.14;29.30;100103.09;146622;604;47012;-81
2023/04/14 12:04:39;;;;;;;;;3.00;2.00;;;;;25.21;30.57;100098.56;146624;633;46011;-76
2023/04/14 12:07:37;;;;;;;;;4.67;3.33;;;;;25.27;28.80;100085.16;146619;565;46014;-81
2023/04/14 12:10:45;;;;;;;;;5.33;2.00;;;;;25.30;29.72;100101.91;146624;651;46010;-82
2023/04/14 12:13:45;;;;;;;;;4.00;2.67;;;;;25.45;30.04;100099.84;146623;578;46013;-82
2023/04/14 12:16:52;;;;;;;;;2.33;1.33;;;;;25.61;27.20;100093.34;146621;598;46020;-79
2023/04/14 12:20:09;;;;;;;;;3.00;1.67;;;;;24.56;32.23;99890.25;146619;574;46033;-82
2023/04/14 12:23:13;;;;;;;;;3.00;2.00;;;;;25.84;30.12;100068.09;146620;643;47010;-82
2023/04/14 12:26:05;;;;;;;;;1.67;1.67;;;;;25.78;26.90;100064.63;146619;600;46014;-82
2023/04/14 12:29:26;;;;;;;;;2.00;1.00;;;;;25.64;27.54;100076.44;146618;597;46010;-81
2023/04/14 12:32:20;;;;;;;;;2.67;2.00;;;;;25.52;28.44;100061.66;146618;658;46016;-81
2023/04/14 12:35:18;;;;;;;;;1.00;1.00;;;;;25.38;28.43;100069.88;146622;584;46011;-82
2023/04/14 12:38:19;;;;;;;;;0.67;0.67;;;;;25.20;29.24;100068.47;146616;566;46014;-78
2023/04/14 12:41:10;;;;;;;;;2.67;2.00;;;;;24.98;28.43;100075.03;146622;591;46012;-82
2023/04/14 12:44:23;;;;;;;;;1.00;1.00;;;;;24.78;31.14;100076.28;146620;573;46017;-80
2023/04/14 12:47:29;;;;;;;;;3.00;2.00;;;;;24.76;30.45;100063.94;146620;591;46029;-85
2023/04/14 12:50:35;;;;;;;;;2.00;2.00;;;;;24.73;32.30;100061.34;146620;611;46013;-76
2023/04/14 12:54:20;;;;;;;;;3.00;2.00;;;;;24.52;28.58;100062.59;146622;667;46020;-76
2023/04/14 12:57:20;;;;;;;;;2.00;2.00;;;;;24.31;31.93;100062.00;146619;590;46013;-84
2023/04/14 13:00:26;;;;;;;;;1.00;0.00;;;;;23.98;30.90;100056.28;146615;566;47010;-76
2023/04/14 13:03:44;;;;;;;;;3.00;3.00;;;;;23.85;33.50;100046.78;146615;592;47012;-80
2023/04/14 13:06:42;;;;;;;;;0.00;0.00;;;;;23.75;32.46;100074.28;146620;564;46021;-78
2023/04/14 13:09:35;;;;;;;;;2.33;1.33;;;;;23.67;32.11;100047.00;146619;608;46016;-81
2023/04/14 13:12:27;;;;;;;;;3.67;3.00;;;;;23.62;31.88;100065.59;146620;572;46011;-78
2023/04/14 13:15:20;;;;;;;;;1.67;0.67;;;;;23.56;29.70;100051.56;146617;565;46012;-78
2023/04/14 13:18:12;;;;;;;;;2.00;1.00;;;;;23.51;30.99;100054.25;146621;584;46010;-78
2023/04/14 13:21:22;;;;;;;;;1.33;0.00;;;;;22.22;31.38;99846.00;146616;565;46014;-77
2023/04/14 13:24:36;;;;;;;;;2.00;1.00;;;;;23.39;30.03;100065.84;146623;690;46020;-78
2023/04/14 13:27:31;;;;;;;;;1.00;1.00;;;;;23.36;30.86;100047.37;146617;599;48012;-75
2023/04/14 13:30:25;;;;;;;;;2.67;1.00;;;;;23.28;29.80;100052.75;146615;671;46012;-80
2023/04/14 13:33:26;;;;;;;;;1.33;1.33;;;;;23.25;30.88;100050.16;146617;615;46021;-79
2023/04/14 13:36:47;;;;;;;;;2.00;1.67;;;;;23.18;29.32;100055.53;146621;571;46021;-79
2023/04/14 13:39:53;;;;;;;;;1.00;1.00;;;;;23.18;32.27;100053.78;146619;565;46012;-83
2023/04/14 13:43:01;;;;;;;;;3.00;2.00;;;;;23.16;33.12;100062.59;146621;584;46021;-83
2023/04/14 13:45:59;;;;;;;;;3.00;1.00;;;;;23.09;32.13;100058.28;146618;647;46014;-79
2023/04/14 13:48:56;;;;;;;;;2.00;0.67;;;;;22.99;33.33;100054.84;146624;665;46011;-79
2023/04/14 13:51:56;;;;;;;;;2.33;1.00;;;;;22.80;34.56;100064.69;146614;590;46016;-78
2023/04/14 13:54:51;;;;;;;;;3.33;1.00;;;;;22.60;34.62;100063.09;146620;634;46020;-75
2023/04/14 13:57:46;;;;;;;;;2.33;1.00;;;;;22.52;35.40;100070.22;146617;623;46017;-77
2023/04/14 14:00:47;;;;;;;;;8.00;6.67;;;;;22.46;36.29;100064.09;146611;629;46010;-78
2023/04/14 14:03:45;;;;;;;;;2.67;2.00;;;;;22.37;37.35;100067.72;146619;584;46016;-80
2023/04/14 14:06:41;;;;;;;;;4.00;4.00;;;;;22.30;37.08;100061.56;146621;666;46020;-80
2023/04/14 14:09:53;;;;;;;;;;;;;;;;;;;;;
2023/04/14 14:12:52;;;;;;;;;3.00;3.00;;;;;22.25;38.94;100094.19;146620;566;46020;-81
2023/04/14 14:16:06;;;;;;;;;2.67;1.00;;;;;22.22;38.22;100108.28;146617;602;46016;-82
2023/04/14 14:19:15;;;;;;;;;1.00;1.00;;;;;22.26;39.12;100103.88;146621;573;46011;-80
2023/04/14 14:22:19;;;;;;;;;2.00;2.00;;;;;22.35;40.62;100120.53;146617;585;47035;-79
2023/04/14 14:25:22;;;;;;;;;4.00;4.00;;;;;22.45;40.33;100128.37;146622;616;46010;-79
2023/04/14 14:28:44;;;;;;;;;;;;;;;;;;;;;
2023/04/14 14:31:51;;;;;;;;;;;;;;;;;;;;;
2023/04/14 14:34:50;;;;;;;;;3.67;2.00;;;;;22.59;40.81;100130.06;146616;629;46016;-81
2023/04/14 14:37:49;;;;;;;;;1.67;1.67;;;;;22.60;40.57;100128.28;146622;579;46020;-81
2023/04/14 14:40:55;;;;;;;;;1.00;1.00;;;;;22.59;40.26;100137.09;146616;592;46016;-82